Airfield :
LOGIN :

Register | Disclaimer

   EN    FR    IT 

 










Legend :    VFR   Marginal VFR   IFR   Intensive IFR   Very Intensive IFR
Visi :
Ceiling :
>= 8 km
>= 3000ft
5 to 8 km
1000 to 3000 ft
1500m to 5 km
500 to 1000 ft
800 to 1500m
200 to 500 ft
< 800m
< 200 ft
Symbols :   Thunderstorms  Fog  Heavy snow  Heavy precipitations  Wind > 20 kt
SIGMETs :     Misc.  Thunderstorms  Icing  Turbulence  Mountain Waves  Volcanic Ashes







- Airport Elevation : 788 ft
- IATA code : DCM
- Download approach charts


LFCK - Castres-Mazamet

EXPIRED METARs :
  • 241430Z AUTO 31009KT 270V350 9999 SCT045 BKN110 27/16 Q1019 NOSIG
  • 241400Z AUTO 33010KT 290V350 9999 BKN043 27/16 Q1020 NOSIG
  • 241330Z AUTO 31010KT 280V360 9999 SCT041 SCT047 27/16 Q1020 NOSIG
  • 241300Z AUTO 32008KT 290V350 9999 BKN041 BKN047 26/16 Q1020 NOSIG
  • 241230Z AUTO 31007KT 270V350 9999 OVC041 26/16 Q1020 NOSIG
  • 241200Z AUTO 31008KT 260V350 9999 OVC040 26/15 Q1020 NOSIG

Expired Forecast.
No reported NOTAMs for that airfield.



MET'MAP, your aeronautical weather chart ! - Copyright ORBIFLY December 2007 - Disclaimer

ORBIFLY MET'MAP TEAM :

Programming & Development : Alexandra Zaïnal
Concept & Development : Baudouin d'Aumeries
Co-Development & Prog : Marc-Olivier Méhu
Technical & hardware support : Manuel Goepfert

Contact : metmap@orbifly.com




SOURCES & CREDITS :

   NOAA